Time;durP1;ratioP1;P1;durP2;ratioP2;P2;SDS_P1;SDS_P2;PMS_P1;PMS_P2;Temp;Humidity;BMP_temperature;BMP_pressure;BME280_temperature;BME280_humidity;BME280_pressure;Samples;Min_cycle;Max_cycle;Signal;HPM_P1;HPM_P2
2022/06/27 00:02:32;;;;;;;0.70;0.50;;;23.60;51.80;;;;;;6270349;28;20029;-68
2022/06/27 00:05:32;;;;;;;0.40;0.40;;;23.60;51.80;;;;;;6270296;28;20124;-68
2022/06/27 00:08:34;;;;;;;0.70;0.50;;;23.60;51.70;;;;;;6269664;28;20056;-68
2022/06/27 00:11:35;;;;;;;0.50;0.43;;;23.50;51.80;;;;;;6269859;28;20021;-68
2022/06/27 00:14:37;;;;;;;0.40;0.40;;;23.60;51.80;;;;;;6268556;28;20397;-68
2022/06/27 00:17:39;;;;;;;0.50;0.50;;;23.60;51.90;;;;;;6269480;28;20049;-68
2022/06/27 00:20:40;;;;;;;0.35;0.35;;;23.60;51.90;;;;;;6268914;28;20407;-68
2022/06/27 00:23:41;;;;;;;0.35;0.35;;;23.60;51.90;;;;;;6269201;28;20037;-68
2022/06/27 00:26:41;;;;;;;0.47;0.43;;;23.50;51.80;;;;;;6268455;28;20032;-68
2022/06/27 00:29:42;;;;;;;0.40;0.40;;;23.60;51.90;;;;;;6269636;28;20025;-68
2022/06/27 00:32:43;;;;;;;0.38;0.38;;;23.50;51.80;;;;;;6268028;28;20057;-68
2022/06/27 00:35:44;;;;;;;0.50;0.50;;;23.50;51.80;;;;;;6269361;28;20025;-68
2022/06/27 00:38:44;;;;;;;0.50;0.50;;;23.60;51.90;;;;;;6269413;28;20107;-68
2022/06/27 00:41:45;;;;;;;0.40;0.40;;;23.50;51.90;;;;;;6269317;28;20398;-68
2022/06/27 00:44:46;;;;;;;0.50;0.47;;;23.50;51.90;;;;;;6268565;28;20064;-68
2022/06/27 00:47:47;;;;;;;0.68;0.60;;;23.60;52.00;;;;;;6269051;28;20032;-68
2022/06/27 00:50:48;;;;;;;0.40;0.40;;;23.60;52.00;;;;;;6269110;28;20132;-68
2022/06/27 00:53:48;;;;;;;1.17;0.50;;;23.50;51.90;;;;;;6267929;28;20103;-68
2022/06/27 00:56:50;;;;;;;0.50;0.50;;;23.60;52.00;;;;;;6268954;28;20025;-68
2022/06/27 00:59:51;;;;;;;0.68;0.30;;;23.50;51.90;;;;;;6269072;28;20025;-68
2022/06/27 01:02:52;;;;;;;0.40;0.40;;;23.50;51.90;;;;;;6268803;28;20032;-68
2022/06/27 01:05:53;;;;;;;0.52;0.52;;;23.60;52.00;;;;;;6268708;28;20028;-68
2022/06/27 01:08:54;;;;;;;0.52;0.50;;;23.50;51.90;;;;;;6267425;28;20028;-68
2022/06/27 01:11:54;;;;;;;0.40;0.40;;;23.50;52.00;;;;;;6267274;28;20029;-68
2022/06/27 01:14:55;;;;;;;0.55;0.50;;;23.50;52.00;;;;;;6267360;28;20048;-68
2022/06/27 01:17:57;;;;;;;0.60;0.60;;;23.50;52.00;;;;;;6267403;28;20078;-68
2022/06/27 01:20:59;;;;;;;0.65;0.63;;;23.50;52.00;;;;;;6268555;28;20025;-68
2022/06/27 01:24:00;;;;;;;0.50;0.50;;;23.50;52.00;;;;;;6268103;28;20041;-68
2022/06/27 01:27:01;;;;;;;0.50;0.50;;;23.50;51.90;;;;;;6268590;28;20040;-68
2022/06/27 01:30:03;;;;;;;0.52;0.50;;;23.60;52.00;;;;;;6268062;28;20037;-68
2022/06/27 01:33:04;;;;;;;0.80;0.70;;;23.50;52.00;;;;;;6268311;28;20108;-68
2022/06/27 01:39:26;;;;;;;0.73;0.50;;;23.50;52.00;;;;;;6268344;28;20541;-68
2022/06/27 01:42:28;;;;;;;0.70;0.60;;;23.50;52.00;;;;;;6268249;28;20079;-68
2022/06/27 01:45:29;;;;;;;0.40;0.40;;;23.50;52.00;;;;;;6268055;28;20059;-68
2022/06/27 01:48:31;;;;;;;0.90;0.50;;;23.50;52.00;;;;;;6268059;28;20033;-68
2022/06/27 01:51:32;;;;;;;0.63;0.50;;;23.50;52.00;;;;;;6266690;28;20461;-68
2022/06/27 01:54:33;;;;;;;0.60;0.60;;;23.50;52.00;;;;;;6267927;28;20032;-68
2022/06/27 01:57:35;;;;;;;2.80;0.40;;;23.50;52.00;;;;;;6270818;28;20060;-68
2022/06/27 02:00:36;;;;;;;0.45;0.45;;;23.50;52.10;;;;;;6273013;28;20025;-68
2022/06/27 02:03:37;;;;;;;0.60;0.60;;;23.50;52.00;;;;;;6272560;28;20025;-68
2022/06/27 02:06:40;;;;;;;0.77;0.70;;;23.50;52.00;;;;;;6273041;28;20381;-68
2022/06/27 02:09:41;;;;;;;0.73;0.60;;;23.50;52.10;;;;;;6272465;28;20447;-68
2022/06/27 02:12:41;;;;;;;0.40;0.40;;;23.50;52.10;;;;;;6272627;28;20025;-68
2022/06/27 02:16:11;;;;;;;0.50;0.50;;;23.60;52.90;;;;;;6272364;28;20039;-68
2022/06/27 02:19:14;;;;;;;1.58;0.75;;;23.50;52.00;;;;;;6271092;28;20104;-68
2022/06/27 02:22:15;;;;;;;0.70;0.65;;;23.50;52.10;;;;;;6271171;28;20070;-68
2022/06/27 02:25:16;;;;;;;0.45;0.45;;;23.50;52.10;;;;;;6272363;28;20032;-68
2022/06/27 02:28:19;;;;;;;0.50;0.50;;;23.50;52.10;;;;;;6272404;28;20021;-68
2022/06/27 02:31:21;;;;;;;0.60;0.60;;;23.50;52.10;;;;;;6270685;28;20022;-68
2022/06/27 02:34:21;;;;;;;0.50;0.50;;;23.50;52.10;;;;;;6271968;28;20094;-68
2022/06/27 02:37:24;;;;;;;0.60;0.60;;;23.50;52.10;;;;;;6272211;28;20478;-68
2022/06/27 02:40:29;;;;;;;0.80;0.60;;;23.50;52.10;;;;;;6272027;28;20029;-68
2022/06/27 02:43:32;;;;;;;0.40;0.40;;;23.50;52.10;;;;;;6271233;28;20044;-68
2022/06/27 02:46:33;;;;;;;0.68;0.60;;;23.50;52.10;;;;;;6272117;28;20462;-68
2022/06/27 02:49:35;;;;;;;0.73;0.63;;;23.50;52.10;;;;;;6271761;28;20025;-68
2022/06/27 02:52:45;;;;;;;0.65;0.52;;;23.50;52.10;;;;;;6270336;28;20108;-68
2022/06/27 02:55:49;;;;;;;1.00;0.80;;;23.50;52.10;;;;;;6270297;28;20082;-68
2022/06/27 02:59:13;;;;;;;1.00;0.82;;;23.50;52.10;;;;;;6271726;28;20450;-68
2022/06/27 03:02:17;;;;;;;1.75;0.90;;;23.50;52.10;;;;;;6271710;28;20043;-69
2022/06/27 03:05:18;;;;;;;1.65;0.98;;;23.50;52.10;;;;;;6271281;28;20489;-68
2022/06/27 03:08:18;;;;;;;1.92;1.23;;;23.50;52.20;;;;;;6270733;28;20074;-68
2022/06/27 03:11:21;;;;;;;1.75;1.30;;;23.50;52.20;;;;;;6269987;28;20071;-68
2022/06/27 03:14:22;;;;;;;1.70;1.20;;;23.50;52.90;;;;;;6269740;28;20532;-68
2022/06/27 03:17:23;;;;;;;2.30;1.35;;;23.50;52.10;;;;;;6271098;28;20024;-68
2022/06/27 03:20:24;;;;;;;2.95;1.20;;;23.50;52.10;;;;;;6270954;28;20021;-68
2022/06/27 03:23:25;;;;;;;2.92;1.80;;;23.50;52.20;;;;;;6269828;28;20029;-68
2022/06/27 03:26:27;;;;;;;2.33;1.52;;;23.50;52.20;;;;;;6270148;28;20060;-68
2022/06/27 03:29:27;;;;;;;2.15;1.55;;;23.50;52.20;;;;;;6269565;28;20112;-68
2022/06/27 03:32:29;;;;;;;2.10;1.40;;;23.50;52.10;;;;;;6269036;28;20032;-68
2022/06/27 03:35:30;;;;;;;2.60;1.50;;;23.50;52.20;;;;;;6270349;28;20037;-68
2022/06/27 03:38:31;;;;;;;1.67;1.35;;;23.50;52.20;;;;;;6270741;28;20031;-68
2022/06/27 03:41:31;;;;;;;3.08;1.63;;;23.50;52.20;;;;;;6269633;28;20406;-68
2022/06/27 03:44:32;;;;;;;1.98;1.40;;;23.50;52.20;;;;;;6269072;28;20052;-68
2022/06/27 03:48:04;;;;;;;2.80;1.70;;;23.50;52.20;;;;;;6270535;28;20556;-68
2022/06/27 03:51:06;;;;;;;3.25;1.90;;;23.50;52.30;;;;;;6269999;28;20104;-68
2022/06/27 03:54:07;;;;;;;2.88;1.60;;;23.50;52.20;;;;;;6269927;28;20017;-68
2022/06/27 03:57:07;;;;;;;2.00;1.40;;;23.50;52.30;;;;;;6270201;28;20054;-68
2022/06/27 04:00:08;;;;;;;1.60;1.13;;;23.50;52.30;;;;;;6268237;28;20787;-68
2022/06/27 04:03:09;;;;;;;2.53;1.42;;;23.50;52.30;;;;;;6269851;28;20069;-68
2022/06/27 04:06:10;;;;;;;2.13;1.38;;;23.50;52.20;;;;;;6269500;28;20032;-68
2022/06/27 04:09:11;;;;;;;2.65;1.38;;;23.50;52.20;;;;;;6268499;28;20025;-68
2022/06/27 04:12:12;;;;;;;1.98;1.48;;;23.50;52.20;;;;;;6269127;28;20025;-68
2022/06/27 04:15:12;;;;;;;2.05;1.30;;;23.50;52.20;;;;;;6269618;28;20029;-68
2022/06/27 04:18:13;;;;;;;2.22;1.50;;;23.50;52.30;;;;;;6268460;28;20104;-68
2022/06/27 04:21:14;;;;;;;1.98;1.30;;;23.50;52.30;;;;;;6269673;28;20445;-68
2022/06/27 04:24:14;;;;;;;1.55;1.33;;;23.50;52.30;;;;;;6268305;28;20021;-69
2022/06/27 04:27:17;;;;;;;1.60;1.30;;;23.50;52.20;;;;;;6269531;28;20029;-68
2022/06/27 04:30:18;;;;;;;2.00;1.40;;;23.50;52.30;;;;;;6268882;28;20032;-68
2022/06/27 04:33:19;;;;;;;1.98;1.45;;;23.50;52.30;;;;;;6269413;28;20025;-67
2022/06/27 04:36:21;;;;;;;2.08;1.15;;;23.50;52.30;;;;;;6270373;28;20021;-68
2022/06/27 04:39:22;;;;;;;2.35;1.38;;;23.50;52.30;;;;;;6268905;28;20494;-68
2022/06/27 04:42:23;;;;;;;2.78;1.25;;;23.50;52.20;;;;;;6269137;28;20029;-68
2022/06/27 04:45:24;;;;;;;1.30;1.15;;;23.50;52.30;;;;;;6268688;28;20045;-68
2022/06/27 04:48:26;;;;;;;2.20;1.30;;;23.50;52.30;;;;;;6268877;28;20021;-69
2022/06/27 04:51:27;;;;;;;1.80;1.30;;;23.50;52.30;;;;;;6268890;28;20484;-68
2022/06/27 04:54:28;;;;;;;1.55;1.30;;;23.50;52.30;;;;;;6266858;28;20033;-68
2022/06/27 04:57:29;;;;;;;1.73;1.35;;;23.50;52.30;;;;;;6268479;28;20104;-68
2022/06/27 05:00:39;;;;;;;1.88;1.48;;;23.50;52.30;;;;;;6267248;28;20151;-68
2022/06/27 05:03:39;;;;;;;1.85;1.30;;;23.50;52.30;;;;;;6268574;28;20025;-68
2022/06/27 05:06:40;;;;;;;1.77;1.27;;;23.50;52.30;;;;;;6268437;28;20075;-68
2022/06/27 05:09:41;;;;;;;1.85;1.10;;;23.50;52.30;;;;;;6268446;28;20514;-68
2022/06/27 05:12:41;;;;;;;2.25;1.20;;;23.50;52.30;;;;;;6268853;28;20436;-68
2022/06/27 05:15:42;;;;;;;2.17;1.20;;;23.50;52.30;;;;;;6268079;28;20653;-68
2022/06/27 05:18:44;;;;;;;1.38;1.10;;;23.50;52.30;;;;;;6268576;28;20024;-68
2022/06/27 05:21:45;;;;;;;1.20;1.10;;;23.50;52.30;;;;;;6268067;28;20029;-67
2022/06/27 05:24:48;;;;;;;1.25;1.10;;;23.50;52.30;;;;;;6251103;28;20397;-69
2022/06/27 05:27:49;;;;;;;1.27;1.00;;;23.50;52.30;;;;;;6280845;28;20385;-68
2022/06/27 05:30:50;;;;;;;1.52;1.10;;;23.50;52.40;;;;;;6270114;28;20021;-68
2022/06/27 05:33:50;;;;;;;2.67;1.10;;;23.60;51.70;;;;;;6266989;28;20224;-68
2022/06/27 05:36:51;;;;;;;1.23;1.00;;;23.60;50.10;;;;;;6265921;28;20017;-69
2022/06/27 05:39:52;;;;;;;1.45;1.20;;;23.60;50.20;;;;;;6266586;28;20082;-69
2022/06/27 05:42:54;;;;;;;1.63;1.33;;;23.60;49.10;;;;;;6266243;28;20051;-68
2022/06/27 05:45:55;;;;;;;1.80;1.10;;;23.70;48.80;;;;;;6265451;28;20133;-68
2022/06/27 05:48:57;;;;;;;1.42;1.02;;;23.70;48.60;;;;;;6265393;28;20036;-68
2022/06/27 05:52:00;;;;;;;2.78;1.38;;;23.80;48.30;;;;;;6266554;28;20123;-68
2022/06/27 05:55:01;;;;;;;1.92;1.05;;;23.80;48.00;;;;;;6266605;28;20017;-68
2022/06/27 05:58:03;;;;;;;1.65;1.20;;;23.90;47.90;;;;;;6266477;28;20028;-68
2022/06/27 06:01:05;;;;;;;2.67;1.48;;;24.00;47.80;;;;;;6259590;28;20044;-68
2022/06/27 06:04:06;;;;;;;1.20;1.10;;;24.00;47.60;;;;;;6268090;28;20433;-69
2022/06/27 06:07:07;;;;;;;1.42;1.10;;;24.00;47.50;;;;;;6268805;28;20025;-69
2022/06/27 06:10:08;;;;;;;1.30;1.08;;;24.10;47.50;;;;;;6266698;28;20033;-69
2022/06/27 06:13:09;;;;;;;2.55;1.30;;;24.00;47.30;;;;;;6266922;28;20024;-69
2022/06/27 06:16:10;;;;;;;1.52;1.20;;;24.00;47.20;;;;;;6270618;28;20021;-69
2022/06/27 06:19:12;;;;;;;1.10;1.00;;;24.10;47.10;;;;;;6258050;28;20068;-68
2022/06/27 06:22:12;;;;;;;2.03;1.10;;;24.10;47.10;;;;;;6268374;28;20017;-68
2022/06/27 06:25:13;;;;;;;1.63;1.20;;;24.10;47.00;;;;;;6267096;28;20459;-69
2022/06/27 06:28:14;;;;;;;1.20;1.00;;;24.10;47.00;;;;;;6268366;28;20057;-69
2022/06/27 06:31:21;;;;;;;1.20;1.10;;;24.10;47.00;;;;;;6268460;28;20017;-69
2022/06/27 06:34:23;;;;;;;1.95;1.10;;;24.10;46.90;;;;;;6269213;28;20477;-69
2022/06/27 06:37:23;;;;;;;1.40;1.00;;;24.10;46.80;;;;;;6268527;28;20049;-69
2022/06/27 06:40:25;;;;;;;1.25;0.90;;;24.10;46.80;;;;;;6268631;28;20047;-69
2022/06/27 06:43:25;;;;;;;1.25;1.10;;;24.10;46.70;;;;;;6273113;28;20072;-69
2022/06/27 06:46:27;;;;;;;1.63;1.27;;;24.10;46.70;;;;;;6271463;28;20774;-68
2022/06/27 06:49:28;;;;;;;1.42;0.98;;;24.10;46.60;;;;;;6271257;28;20028;-68
2022/06/27 06:52:30;;;;;;;1.05;0.90;;;24.20;46.50;;;;;;6269554;28;20024;-68
2022/06/27 06:55:32;;;;;;;2.10;1.10;;;24.10;46.40;;;;;;6260909;28;20029;-68
2022/06/27 06:58:34;;;;;;;1.98;1.30;;;24.10;46.40;;;;;;6265726;28;20716;-69
2022/06/27 07:01:35;;;;;;;1.30;1.10;;;24.10;46.40;;;;;;6272463;28;20048;-69
2022/06/27 07:04:36;;;;;;;0.90;0.80;;;24.10;46.30;;;;;;6279573;28;20089;-68
2022/06/27 07:07:41;;;;;;;1.00;0.90;;;24.10;46.30;;;;;;6283477;28;20119;-69
2022/06/27 07:10:42;;;;;;;1.83;1.20;;;24.10;46.90;;;;;;6264241;28;20120;-69
2022/06/27 07:13:43;;;;;;;3.10;1.02;;;24.10;46.20;;;;;;6266928;28;20025;-69
2022/06/27 07:16:46;;;;;;;2.10;1.02;;;24.20;46.30;;;;;;6272326;28;20079;-69
2022/06/27 07:19:49;;;;;;;1.58;0.90;;;24.20;46.10;;;;;;6272046;28;20379;-69
2022/06/27 07:22:50;;;;;;;1.02;0.82;;;24.20;46.00;;;;;;6272172;28;20368;-68
2022/06/27 07:25:51;;;;;;;1.58;1.05;;;24.20;45.80;;;;;;6270874;28;20035;-69
2022/06/27 07:28:53;;;;;;;1.50;0.98;;;24.20;45.80;;;;;;6270215;28;20021;-69
2022/06/27 07:31:54;;;;;;;1.52;1.00;;;24.20;45.90;;;;;;6272220;28;20101;-69
2022/06/27 07:34:57;;;;;;;1.02;0.80;;;24.20;45.80;;;;;;6273128;28;20378;-68
2022/06/27 07:37:58;;;;;;;0.98;0.80;;;24.20;45.90;;;;;;6295184;28;20026;-69
2022/06/27 07:40:59;;;;;;;1.42;1.00;;;24.20;45.80;;;;;;6296442;28;20031;-69
2022/06/27 07:44:02;;;;;;;1.17;0.85;;;24.20;45.80;;;;;;6288121;28;20065;-69
2022/06/27 07:47:03;;;;;;;1.17;0.90;;;24.20;45.80;;;;;;6271413;28;20021;-69
2022/06/27 07:50:05;;;;;;;1.15;0.90;;;24.20;45.80;;;;;;6271626;28;20036;-68
2022/06/27 07:53:12;;;;;;;1.13;1.02;;;24.20;45.80;;;;;;6271293;28;20057;-69
2022/06/27 07:56:14;;;;;;;0.90;0.63;;;24.20;45.80;;;;;;6246933;28;20032;-68
2022/06/27 07:59:15;;;;;;;1.00;0.90;;;24.20;45.80;;;;;;6255499;28;20490;-67
2022/06/27 08:02:16;;;;;;;1.25;0.90;;;24.20;45.70;;;;;;6277530;28;20021;-67
2022/06/27 08:05:16;;;;;;;1.10;0.90;;;24.20;46.30;;;;;;6274815;28;20098;-67
2022/06/27 08:08:17;;;;;;;1.08;0.88;;;24.20;45.50;;;;;;6269655;28;20025;-67
2022/06/27 08:11:24;;;;;;;1.33;1.00;;;24.30;45.60;;;;;;6272566;28;20052;-67
2022/06/27 08:14:25;;;;;;;1.55;1.13;;;24.30;45.50;;;;;;6270766;28;20029;-67
2022/06/27 08:17:26;;;;;;;0.93;0.80;;;24.20;45.50;;;;;;6270666;28;20025;-67
2022/06/27 08:20:27;;;;;;;1.48;0.80;;;24.30;45.70;;;;;;6270371;28;20036;-67
2022/06/27 08:23:28;;;;;;;1.25;0.90;;;24.30;45.80;;;;;;6271313;28;20032;-67
2022/06/27 08:26:31;;;;;;;1.23;1.02;;;24.20;46.40;;;;;;6271870;28;20025;-67
2022/06/27 08:29:32;;;;;;;1.10;0.98;;;24.20;45.70;;;;;;6271868;28;20039;-68
2022/06/27 08:32:33;;;;;;;1.35;1.05;;;24.20;45.70;;;;;;6271506;28;20112;-67
2022/06/27 08:35:35;;;;;;;1.45;0.90;;;24.20;45.70;;;;;;6270460;28;20032;-67
2022/06/27 08:38:52;;;;;;;1.88;0.75;;;24.20;45.70;;;;;;6271569;28;20021;-67
2022/06/27 08:41:53;;;;;;;1.60;1.20;;;24.20;45.60;;;;;;6271952;28;20104;-67
2022/06/27 08:44:55;;;;;;;4.15;0.95;;;24.20;45.60;;;;;;6271444;28;20059;-67
2022/06/27 08:48:06;;;;;;;1.27;1.00;;;24.20;45.60;;;;;;6271058;28;20080;-67
2022/06/27 08:51:07;;;;;;;0.73;0.70;;;24.20;45.60;;;;;;6271515;28;20475;-67
2022/06/27 08:54:09;;;;;;;0.60;0.60;;;24.20;45.60;;;;;;6271219;28;20053;-67
2022/06/27 08:57:10;;;;;;;1.20;0.88;;;24.20;45.50;;;;;;6271403;28;20478;-67
2022/06/27 09:00:15;;;;;;;0.80;0.73;;;24.20;45.50;;;;;;6270872;28;20052;-67
2022/06/27 09:03:20;;;;;;;1.10;0.80;;;24.20;45.40;;;;;;6269937;28;20059;-67
2022/06/27 09:06:21;;;;;;;1.38;0.80;;;24.20;45.40;;;;;;6270525;28;20041;-67
2022/06/27 09:09:24;;;;;;;1.45;1.08;;;24.20;45.40;;;;;;6271075;28;20056;-67
2022/06/27 09:12:27;;;;;;;0.70;0.70;;;24.20;45.30;;;;;;6270899;28;20013;-67
2022/06/27 09:15:51;;;;;;;1.13;0.98;;;24.20;45.30;;;;;;6269461;28;20543;-68
2022/06/27 09:18:53;;;;;;;1.00;0.90;;;24.20;45.40;;;;;;6269753;28;20087;-67
2022/06/27 09:22:11;;;;;;;1.52;0.95;;;24.20;45.30;;;;;;6270612;28;20424;-67
2022/06/27 09:25:13;;;;;;;1.23;1.02;;;24.20;45.30;;;;;;6269208;28;20123;-67
2022/06/27 09:28:14;;;;;;;0.82;0.75;;;24.20;45.30;;;;;;6269256;28;20156;-67
2022/06/27 09:31:30;;;;;;;0.80;0.70;;;24.20;45.20;;;;;;6269375;28;20021;-67
2022/06/27 09:34:30;;;;;;;0.95;0.80;;;24.20;45.20;;;;;;6270843;28;20020;-67
2022/06/27 09:37:50;;;;;;;0.90;0.80;;;24.20;45.20;;;;;;6270526;28;20091;-68
2022/06/27 09:40:52;;;;;;;0.90;0.80;;;24.20;45.20;;;;;;6270658;28;20721;-68
2022/06/27 09:43:56;;;;;;;2.33;0.80;;;24.20;45.10;;;;;;6269070;28;20202;-68
2022/06/27 09:47:18;;;;;;;1.05;0.77;;;24.20;45.20;;;;;;6270622;28;20032;-68
2022/06/27 09:50:19;;;;;;;0.90;0.70;;;24.20;45.20;;;;;;6270382;28;20478;-68
2022/06/27 09:53:26;;;;;;;1.85;0.80;;;24.20;45.10;;;;;;6270451;28;20088;-68
2022/06/27 09:56:29;;;;;;;0.65;0.65;;;24.20;45.10;;;;;;6270193;28;20029;-67
2022/06/27 09:59:30;;;;;;;1.75;0.90;;;24.20;45.00;;;;;;6270580;28;20029;-67
2022/06/27 10:02:32;;;;;;;0.80;0.80;;;24.20;45.00;;;;;;6270043;28;20037;-67
2022/06/27 10:05:34;;;;;;;0.88;0.70;;;24.20;45.00;;;;;;6268981;28;20478;-68
2022/06/27 10:08:36;;;;;;;0.80;0.80;;;24.20;45.10;;;;;;6268713;28;20481;-68
2022/06/27 10:11:37;;;;;;;1.40;0.68;;;24.20;45.00;;;;;;6270450;28;20025;-68
2022/06/27 10:14:38;;;;;;;0.80;0.80;;;24.20;45.00;;;;;;6270100;28;20100;-67
2022/06/27 10:17:41;;;;;;;1.45;0.80;;;24.20;45.00;;;;;;6272929;28;20155;-68
2022/06/27 10:20:47;;;;;;;0.70;0.70;;;24.20;45.00;;;;;;6274872;28;20374;-68
2022/06/27 10:24:29;;;;;;;1.05;0.70;;;24.20;45.00;;;;;;6273727;28;20025;-67
2022/06/27 10:27:31;;;;;;;0.95;0.82;;;24.20;44.90;;;;;;6274775;28;20481;-67
2022/06/27 10:30:48;;;;;;;0.70;0.65;;;24.20;45.00;;;;;;6273322;28;20036;-68
2022/06/27 10:33:49;;;;;;;1.08;0.80;;;24.20;44.90;;;;;;6274511;28;20104;-68
2022/06/27 10:37:19;;;;;;;0.80;0.80;;;24.20;45.00;;;;;;6274706;28;20020;-68
2022/06/27 10:40:19;;;;;;;0.82;0.65;;;24.20;44.80;;;;;;6274686;28;20025;-68
2022/06/27 10:43:37;;;;;;;0.52;0.52;;;24.20;44.80;;;;;;6274255;28;20071;-68
2022/06/27 10:46:39;;;;;;;0.80;0.80;;;24.20;44.80;;;;;;6274416;28;20067;-68
2022/06/27 10:49:40;;;;;;;0.80;0.70;;;24.20;44.80;;;;;;6272892;28;20112;-68
2022/06/27 10:52:41;;;;;;;1.13;0.60;;;24.20;44.70;;;;;;6274298;28;20013;-67
2022/06/27 10:55:42;;;;;;;0.88;0.80;;;24.20;44.80;;;;;;6274526;28;20108;-69
2022/06/27 10:58:47;;;;;;;1.00;0.90;;;24.20;44.80;;;;;;6274995;28;20385;-67
2022/06/27 11:01:51;;;;;;;1.63;0.82;;;24.20;44.80;;;;;;6274857;28;20017;-66
2022/06/27 11:04:53;;;;;;;0.47;0.47;;;24.20;44.80;;;;;;6275218;28;20028;-66
2022/06/27 11:07:54;;;;;;;0.75;0.75;;;24.20;44.80;;;;;;6275156;28;20037;-67
2022/06/27 11:10:55;;;;;;;0.60;0.60;;;24.20;44.70;;;;;;6273263;28;20032;-66
2022/06/27 11:13:58;;;;;;;0.95;0.90;;;24.20;44.70;;;;;;6274467;28;20432;-67
2022/06/27 11:16:59;;;;;;;0.70;0.60;;;24.20;44.70;;;;;;6274226;28;20021;-66
2022/06/27 11:20:11;;;;;;;0.80;0.70;;;24.20;44.70;;;;;;6274533;28;20143;-67
2022/06/27 11:23:12;;;;;;;0.75;0.70;;;24.20;44.70;;;;;;6267940;28;20083;-66
2022/06/27 11:26:13;;;;;;;2.58;0.90;;;24.20;44.70;;;;;;6278437;28;20469;-66
2022/06/27 11:32:41;;;;;;;0.60;0.60;;;24.20;44.60;;;;;;6271864;28;20441;-66
2022/06/27 11:35:42;;;;;;;0.82;0.63;;;24.10;45.80;;;;;;6270266;28;20063;-66
2022/06/27 11:38:47;;;;;;;2.05;0.70;;;24.00;46.10;;;;;;6271421;28;20551;-66
2022/06/27 11:41:57;;;;;;;0.60;0.60;;;23.90;46.70;;;;;;6291626;28;20509;-66
2022/06/27 11:45:04;;;;;;;1.25;0.80;;;23.90;47.00;;;;;;6270304;28;20394;-66
2022/06/27 11:48:11;;;;;;;1.90;0.70;;;23.80;47.20;;;;;;6269231;28;20031;-66
2022/06/27 11:51:21;;;;;;;1.20;0.60;;;23.80;47.30;;;;;;6270441;28;20590;-66
2022/06/27 11:54:22;;;;;;;0.60;0.50;;;23.80;47.50;;;;;;6270436;28;20056;-66
2022/06/27 11:57:29;;;;;;;1.33;0.70;;;23.80;47.70;;;;;;6266058;28;20025;-66
2022/06/27 12:00:33;;;;;;;1.00;0.80;;;23.80;47.80;;;;;;6269080;28;20555;-65
2022/06/27 12:03:33;;;;;;;0.82;0.60;;;23.80;47.90;;;;;;6267009;28;21511;-66
2022/06/27 12:06:48;;;;;;;0.60;0.60;;;23.80;48.00;;;;;;6295571;28;20041;-66
2022/06/27 12:09:51;;;;;;;0.70;0.70;;;23.70;48.00;;;;;;6294574;28;20047;-66
2022/06/27 12:12:57;;;;;;;0.88;0.60;;;23.70;48.00;;;;;;6296470;28;20027;-66
2022/06/27 12:16:00;;;;;;;0.80;0.80;;;23.70;48.20;;;;;;6295510;28;20145;-67
2022/06/27 12:19:09;;;;;;;0.50;0.50;;;23.70;48.20;;;;;;6278442;28;20028;-67
2022/06/27 12:22:19;;;;;;;0.50;0.50;;;23.70;48.30;;;;;;6270565;28;20648;-67
2022/06/27 12:25:21;;;;;;;0.95;0.73;;;23.70;48.40;;;;;;6270795;28;20102;-66
2022/06/27 12:28:23;;;;;;;0.70;0.70;;;23.70;48.50;;;;;;6270488;28;20029;-66
2022/06/27 12:31:24;;;;;;;0.60;0.60;;;23.60;48.40;;;;;;6270608;28;20020;-66
2022/06/27 12:34:27;;;;;;;1.05;0.70;;;23.70;48.50;;;;;;6270710;28;20021;-66
2022/06/27 12:37:28;;;;;;;0.82;0.70;;;23.70;48.60;;;;;;6270274;28;20100;-67
2022/06/27 12:40:29;;;;;;;0.70;0.70;;;23.70;48.60;;;;;;6269933;28;20025;-67
2022/06/27 12:43:30;;;;;;;1.67;0.90;;;23.60;48.60;;;;;;6270061;28;20107;-66
2022/06/27 12:46:31;;;;;;;0.50;0.50;;;23.60;48.60;;;;;;6270291;28;20060;-66
2022/06/27 12:49:32;;;;;;;0.57;0.50;;;23.60;48.70;;;;;;6270007;28;20056;-68
2022/06/27 12:52:33;;;;;;;0.85;0.60;;;23.60;48.70;;;;;;6266889;28;20025;-67
2022/06/27 12:55:33;;;;;;;0.65;0.65;;;23.60;48.70;;;;;;6267610;28;20070;-67
2022/06/27 12:58:35;;;;;;;0.52;0.52;;;23.60;48.70;;;;;;6269027;28;20481;-67
2022/06/27 13:01:36;;;;;;;0.68;0.68;;;23.60;48.80;;;;;;6249720;28;20044;-67
2022/06/27 13:04:37;;;;;;;0.70;0.68;;;23.60;48.80;;;;;;6259911;28;20029;-67
2022/06/27 13:07:38;;;;;;;0.80;0.77;;;23.60;48.80;;;;;;6267565;28;20079;-67
2022/06/27 13:10:39;;;;;;;0.80;0.75;;;23.60;48.90;;;;;;6268307;28;20024;-67
2022/06/27 13:13:40;;;;;;;0.88;0.75;;;23.60;48.90;;;;;;6267236;28;20025;-67
2022/06/27 13:16:40;;;;;;;0.80;0.77;;;23.60;49.00;;;;;;6266790;28;20048;-67
2022/06/27 13:19:41;;;;;;;2.47;0.80;;;23.60;48.90;;;;;;6266525;28;20245;-67
2022/06/27 13:22:42;;;;;;;1.05;0.70;;;23.60;49.10;;;;;;6266542;28;20032;-67
2022/06/27 13:25:44;;;;;;;2.35;0.80;;;23.60;49.10;;;;;;6267434;28;20025;-67
2022/06/27 13:28:45;;;;;;;3.75;0.60;;;23.60;49.10;;;;;;6266600;28;20024;-67
2022/06/27 13:31:46;;;;;;;2.10;0.60;;;23.60;49.20;;;;;;6255175;28;20685;-67
2022/06/27 13:34:46;;;;;;;0.73;0.70;;;23.60;49.20;;;;;;6266729;28;20020;-67
2022/06/27 13:37:47;;;;;;;0.90;0.60;;;23.60;49.30;;;;;;6267435;28;20487;-67
2022/06/27 13:40:48;;;;;;;3.13;0.65;;;23.60;49.30;;;;;;6268392;28;20036;-67
2022/06/27 13:43:49;;;;;;;0.98;0.80;;;23.60;49.30;;;;;;6267719;28;20159;-67
2022/06/27 13:46:50;;;;;;;1.38;0.70;;;23.60;49.40;;;;;;6267464;28;20074;-67
2022/06/27 13:49:51;;;;;;;1.92;0.70;;;23.60;49.40;;;;;;6267417;28;20025;-67
2022/06/27 13:52:52;;;;;;;0.88;0.80;;;23.60;49.40;;;;;;6275844;28;20036;-67
2022/06/27 13:55:53;;;;;;;1.42;0.65;;;23.60;49.50;;;;;;6275395;28;20017;-67
2022/06/27 13:58:53;;;;;;;0.95;0.75;;;23.50;49.50;;;;;;6275369;28;20043;-67
2022/06/27 14:01:54;;;;;;;1.52;0.60;;;23.60;49.50;;;;;;6276133;28;20087;-67
2022/06/27 14:04:55;;;;;;;1.13;0.70;;;23.60;49.50;;;;;;6275352;28;20021;-67
2022/06/27 14:07:57;;;;;;;1.42;0.70;;;23.60;49.60;;;;;;6274121;28;20060;-67
2022/06/27 14:10:58;;;;;;;1.15;0.73;;;23.60;49.60;;;;;;6275746;28;20033;-67
2022/06/27 14:13:59;;;;;;;0.82;0.68;;;23.60;49.60;;;;;;6275128;28;20028;-67
2022/06/27 14:17:00;;;;;;;0.75;0.70;;;23.60;49.70;;;;;;6272153;28;20032;-67
2022/06/27 14:20:01;;;;;;;1.10;0.70;;;23.50;49.60;;;;;;6271646;28;20029;-67
2022/06/27 14:23:02;;;;;;;0.68;0.60;;;23.50;49.60;;;;;;6273077;28;20044;-67
2022/06/27 14:26:03;;;;;;;1.13;0.75;;;23.50;49.70;;;;;;6274454;28;20073;-67
2022/06/27 14:29:04;;;;;;;0.93;0.70;;;23.60;49.80;;;;;;6273628;28;20040;-66
2022/06/27 14:32:06;;;;;;;0.77;0.70;;;23.50;49.70;;;;;;6272518;28;20561;-66
2022/06/27 14:35:07;;;;;;;1.08;0.85;;;23.50;49.70;;;;;;6272618;28;20017;-67
2022/06/27 14:38:07;;;;;;;1.13;0.80;;;23.50;49.80;;;;;;6272432;28;20025;-67
2022/06/27 14:41:08;;;;;;;0.50;0.50;;;23.50;49.80;;;;;;6273401;28;20052;-66
2022/06/27 14:44:09;;;;;;;1.70;0.80;;;23.50;49.80;;;;;;6275372;28;20040;-66
2022/06/27 14:47:10;;;;;;;1.38;0.80;;;23.50;50.10;;;;;;6274695;28;20017;-66
2022/06/27 14:50:11;;;;;;;2.50;0.95;;;23.50;50.20;;;;;;6274949;28;20390;-66
2022/06/27 14:53:11;;;;;;;0.70;0.70;;;23.60;50.20;;;;;;6277748;28;20510;-66
2022/06/27 14:56:12;;;;;;;0.63;0.60;;;23.60;50.20;;;;;;6274813;28;20095;-66
2022/06/27 14:59:13;;;;;;;0.77;0.60;;;23.50;50.10;;;;;;6274155;28;20100;-66
2022/06/27 15:02:14;;;;;;;1.80;0.77;;;23.50;50.10;;;;;;6273106;28;20391;-66
2022/06/27 15:05:15;;;;;;;1.33;0.80;;;23.50;50.10;;;;;;6270908;28;20478;-66
2022/06/27 15:08:17;;;;;;;2.03;0.95;;;23.50;50.10;;;;;;6270360;28;20021;-65
2022/06/27 15:14:37;;;;;;;1.63;0.95;;;23.50;50.20;;;;;;6273156;28;20029;-67
2022/06/27 15:17:37;;;;;;;2.70;0.73;;;23.50;50.20;;;;;;6272924;28;20436;-67
2022/06/27 15:20:38;;;;;;;1.70;0.70;;;23.50;50.20;;;;;;6273134;28;20025;-67
2022/06/27 15:23:39;;;;;;;1.17;0.75;;;23.50;50.20;;;;;;6272552;28;20051;-67
2022/06/27 15:26:41;;;;;;;1.10;0.63;;;23.50;50.20;;;;;;6271270;28;20048;-66
2022/06/27 15:29:42;;;;;;;1.38;0.88;;;23.50;50.30;;;;;;6272912;28;20029;-67
2022/06/27 15:32:43;;;;;;;0.63;0.63;;;23.50;50.30;;;;;;6272255;28;20021;-67
2022/06/27 15:35:44;;;;;;;0.80;0.70;;;23.50;50.30;;;;;;6270918;28;20524;-67
2022/06/27 15:38:45;;;;;;;0.77;0.70;;;23.50;50.30;;;;;;6270991;28;20036;-67
2022/06/27 15:41:45;;;;;;;0.70;0.70;;;23.50;50.40;;;;;;6272384;28;20647;-67
2022/06/27 15:44:47;;;;;;;0.70;0.70;;;23.50;50.40;;;;;;6270794;28;20489;-67
2022/06/27 15:47:48;;;;;;;0.60;0.60;;;23.50;50.40;;;;;;6270929;28;20063;-67
2022/06/27 15:50:49;;;;;;;2.97;0.60;;;23.50;50.40;;;;;;6271862;28;20029;-67
2022/06/27 15:53:49;;;;;;;0.40;0.40;;;23.50;50.40;;;;;;6272024;28;20021;-67
2022/06/27 15:56:50;;;;;;;0.60;0.60;;;23.50;50.40;;;;;;6271743;28;20021;-67
2022/06/27 15:59:51;;;;;;;1.75;0.70;;;23.50;50.40;;;;;;6272027;28;20040;-67
2022/06/27 16:02:51;;;;;;;0.73;0.70;;;23.50;50.40;;;;;;6271747;28;20037;-67